Terminal Aerodrome Forecast
Issued by NWS Wilmington, OH

Current Version | Previous Version | Text Only | Print | Product List | Glossary Off
Versions: 1 2 3 4 5 6 7 8 9 10 11 12 13 14 15 16 17 18 19 20 21 22 23 24 25 26 27 28

025
FTUS41 KILN 280549
TAFCMH
TAF
KCMH 280549Z 2806/2906 VRB03KT P6SM SCT150
     FM281000 00000KT P6SM VCSH BKN040 BKN150
     FM281200 18003KT 6SM -SHRA BR BKN040 BKN150
      TEMPO 2813/2817 5SM -SHRA BR OVC035
     FM282000 18005KT P6SM VCTS BKN040CB BKN150
     FM290300 VRB04KT P6SM BKN090=

USA.gov is the U.S. government's official web portal to all federal, state and local government web resources and services.